sensor_id;sensor_type;location;lat;lon;timestamp;P1;durP1;ratioP1;P2;durP2;ratioP2
47431;SDS011;33183;52.290;6.144;2023-01-23T00:00:36;5.72;;;4.25;;
47431;SDS011;33183;52.290;6.144;2023-01-23T00:03:03;7.80;;;4.57;;
47431;SDS011;33183;52.290;6.144;2023-01-23T00:05:28;5.72;;;4.22;;
47431;SDS011;33183;52.290;6.144;2023-01-23T00:07:53;5.57;;;4.15;;
47431;SDS011;33183;52.290;6.144;2023-01-23T00:10:19;5.50;;;4.20;;
47431;SDS011;33183;52.290;6.144;2023-01-23T00:12:44;5.90;;;4.10;;
47431;SDS011;33183;52.290;6.144;2023-01-23T00:15:11;5.00;;;3.85;;
47431;SDS011;33183;52.290;6.144;2023-01-23T00:17:37;5.82;;;3.90;;
47431;SDS011;33183;52.290;6.144;2023-01-23T00:20:04;6.43;;;4.22;;
47431;SDS011;33183;52.290;6.144;2023-01-23T00:22:30;5.15;;;4.13;;
47431;SDS011;33183;52.290;6.144;2023-01-23T00:24:56;5.85;;;4.13;;
47431;SDS011;33183;52.290;6.144;2023-01-23T00:27:21;5.20;;;3.80;;
47431;SDS011;33183;52.290;6.144;2023-01-23T00:29:46;5.63;;;3.83;;
47431;SDS011;33183;52.290;6.144;2023-01-23T00:32:11;5.65;;;3.88;;
47431;SDS011;33183;52.290;6.144;2023-01-23T00:34:37;5.70;;;3.78;;
47431;SDS011;33183;52.290;6.144;2023-01-23T00:37:02;7.28;;;4.20;;
47431;SDS011;33183;52.290;6.144;2023-01-23T00:39:28;6.07;;;4.07;;
47431;SDS011;33183;52.290;6.144;2023-01-23T00:41:53;5.45;;;3.88;;
47431;SDS011;33183;52.290;6.144;2023-01-23T00:44:19;4.47;;;3.58;;
47431;SDS011;33183;52.290;6.144;2023-01-23T00:46:44;5.47;;;4.00;;
47431;SDS011;33183;52.290;6.144;2023-01-23T00:49:09;5.68;;;3.78;;
47431;SDS011;33183;52.290;6.144;2023-01-23T00:51:35;4.47;;;3.80;;
47431;SDS011;33183;52.290;6.144;2023-01-23T00:54:00;4.40;;;3.35;;
47431;SDS011;33183;52.290;6.144;2023-01-23T00:56:25;5.68;;;3.85;;
47431;SDS011;33183;52.290;6.144;2023-01-23T00:58:51;5.32;;;4.25;;
47431;SDS011;33183;52.290;6.144;2023-01-23T01:01:16;4.32;;;3.40;;
47431;SDS011;33183;52.290;6.144;2023-01-23T01:03:42;5.38;;;3.85;;
47431;SDS011;33183;52.290;6.144;2023-01-23T01:06:08;5.00;;;3.55;;
47431;SDS011;33183;52.290;6.144;2023-01-23T01:08:34;5.03;;;3.33;;
47431;SDS011;33183;52.290;6.144;2023-01-23T01:11:00;5.15;;;3.88;;
47431;SDS011;33183;52.290;6.144;2023-01-23T01:13:25;5.38;;;3.40;;
47431;SDS011;33183;52.290;6.144;2023-01-23T01:15:51;5.50;;;3.30;;
47431;SDS011;33183;52.290;6.144;2023-01-23T01:18:17;5.65;;;3.20;;
47431;SDS011;33183;52.290;6.144;2023-01-23T01:20:43;3.92;;;3.30;;
47431;SDS011;33183;52.290;6.144;2023-01-23T01:23:09;5.32;;;3.42;;
47431;SDS011;33183;52.290;6.144;2023-01-23T01:25:35;4.75;;;3.20;;
47431;SDS011;33183;52.290;6.144;2023-01-23T01:28:00;4.85;;;3.53;;
47431;SDS011;33183;52.290;6.144;2023-01-23T01:30:26;4.53;;;3.28;;
47431;SDS011;33183;52.290;6.144;2023-01-23T01:32:52;5.75;;;3.10;;
47431;SDS011;33183;52.290;6.144;2023-01-23T01:35:18;6.53;;;4.10;;
47431;SDS011;33183;52.290;6.144;2023-01-23T01:37:44;4.00;;;3.17;;
47431;SDS011;33183;52.290;6.144;2023-01-23T01:40:13;4.60;;;3.50;;
47431;SDS011;33183;52.290;6.144;2023-01-23T01:42:46;4.72;;;4.03;;
47431;SDS011;33183;52.290;6.144;2023-01-23T01:51:25;3.95;;;2.97;;
47431;SDS011;33183;52.290;6.144;2023-01-23T01:53:57;3.63;;;3.10;;
47431;SDS011;33183;52.290;6.144;2023-01-23T01:56:27;4.53;;;3.08;;
47431;SDS011;33183;52.290;6.144;2023-01-23T01:58:53;4.45;;;3.15;;
47431;SDS011;33183;52.290;6.144;2023-01-23T02:01:18;5.03;;;3.58;;
47431;SDS011;33183;52.290;6.144;2023-01-23T02:03:44;5.15;;;3.67;;
47431;SDS011;33183;52.290;6.144;2023-01-23T02:06:09;3.85;;;2.90;;
47431;SDS011;33183;52.290;6.144;2023-01-23T02:11:18;5.35;;;3.50;;
47431;SDS011;33183;52.290;6.144;2023-01-23T02:13:43;3.90;;;3.05;;
47431;SDS011;33183;52.290;6.144;2023-01-23T02:16:19;4.57;;;2.78;;
47431;SDS011;33183;52.290;6.144;2023-01-23T02:18:47;4.40;;;3.42;;
47431;SDS011;33183;52.290;6.144;2023-01-23T02:21:14;3.40;;;2.67;;
47431;SDS011;33183;52.290;6.144;2023-01-23T02:26:42;3.85;;;3.05;;
47431;SDS011;33183;52.290;6.144;2023-01-23T02:29:09;4.00;;;2.80;;
47431;SDS011;33183;52.290;6.144;2023-01-23T02:31:35;4.30;;;2.42;;
47431;SDS011;33183;52.290;6.144;2023-01-23T02:34:01;3.40;;;2.88;;
47431;SDS011;33183;52.290;6.144;2023-01-23T02:36:28;3.83;;;2.67;;
47431;SDS011;33183;52.290;6.144;2023-01-23T02:41:28;4.60;;;3.05;;
47431;SDS011;33183;52.290;6.144;2023-01-23T02:43:56;3.60;;;3.07;;
47431;SDS011;33183;52.290;6.144;2023-01-23T02:46:23;3.90;;;2.53;;
47431;SDS011;33183;52.290;6.144;2023-01-23T02:48:49;4.20;;;2.50;;
47431;SDS011;33183;52.290;6.144;2023-01-23T02:51:14;3.05;;;2.53;;
47431;SDS011;33183;52.290;6.144;2023-01-23T02:53:41;4.18;;;2.50;;
47431;SDS011;33183;52.290;6.144;2023-01-23T02:56:07;3.55;;;2.83;;
47431;SDS011;33183;52.290;6.144;2023-01-23T02:58:32;2.90;;;2.60;;
47431;SDS011;33183;52.290;6.144;2023-01-23T03:01:16;3.03;;;2.40;;
47431;SDS011;33183;52.290;6.144;2023-01-23T03:03:42;3.17;;;2.35;;
47431;SDS011;33183;52.290;6.144;2023-01-23T03:06:07;2.65;;;2.25;;
47431;SDS011;33183;52.290;6.144;2023-01-23T03:08:32;3.90;;;2.75;;
47431;SDS011;33183;52.290;6.144;2023-01-23T03:11:00;3.03;;;2.33;;
47431;SDS011;33183;52.290;6.144;2023-01-23T03:13:27;2.58;;;2.30;;
47431;SDS011;33183;52.290;6.144;2023-01-23T03:15:53;4.60;;;2.78;;
47431;SDS011;33183;52.290;6.144;2023-01-23T03:18:20;3.70;;;2.53;;
47431;SDS011;33183;52.290;6.144;2023-01-23T03:20:45;3.40;;;2.40;;
47431;SDS011;33183;52.290;6.144;2023-01-23T03:23:10;4.57;;;2.70;;
47431;SDS011;33183;52.290;6.144;2023-01-23T03:25:36;3.10;;;2.22;;
47431;SDS011;33183;52.290;6.144;2023-01-23T03:28:01;3.60;;;2.50;;
47431;SDS011;33183;52.290;6.144;2023-01-23T03:30:27;3.00;;;2.50;;
47431;SDS011;33183;52.290;6.144;2023-01-23T03:32:52;4.22;;;2.75;;
47431;SDS011;33183;52.290;6.144;2023-01-23T03:35:18;4.20;;;2.60;;
47431;SDS011;33183;52.290;6.144;2023-01-23T03:37:47;3.45;;;2.50;;
47431;SDS011;33183;52.290;6.144;2023-01-23T03:40:23;3.05;;;2.38;;
47431;SDS011;33183;52.290;6.144;2023-01-23T03:43:07;2.72;;;2.47;;
47431;SDS011;33183;52.290;6.144;2023-01-23T03:45:33;3.08;;;2.40;;
47431;SDS011;33183;52.290;6.144;2023-01-23T03:47:58;4.18;;;2.28;;
47431;SDS011;33183;52.290;6.144;2023-01-23T03:50:24;2.92;;;2.20;;
47431;SDS011;33183;52.290;6.144;2023-01-23T03:52:49;4.03;;;2.20;;
47431;SDS011;33183;52.290;6.144;2023-01-23T03:55:14;2.70;;;2.40;;
47431;SDS011;33183;52.290;6.144;2023-01-23T03:57:40;4.38;;;2.55;;
47431;SDS011;33183;52.290;6.144;2023-01-23T04:00:05;3.70;;;3.05;;
47431;SDS011;33183;52.290;6.144;2023-01-23T04:02:31;3.00;;;2.33;;
47431;SDS011;33183;52.290;6.144;2023-01-23T04:04:57;4.03;;;2.67;;
47431;SDS011;33183;52.290;6.144;2023-01-23T04:07:22;3.65;;;2.35;;
47431;SDS011;33183;52.290;6.144;2023-01-23T04:09:47;3.10;;;2.20;;
47431;SDS011;33183;52.290;6.144;2023-01-23T04:12:13;3.17;;;2.13;;
47431;SDS011;33183;52.290;6.144;2023-01-23T04:14:38;4.57;;;2.65;;
47431;SDS011;33183;52.290;6.144;2023-01-23T04:17:05;3.50;;;2.33;;
47431;SDS011;33183;52.290;6.144;2023-01-23T04:19:31;3.30;;;2.75;;
47431;SDS011;33183;52.290;6.144;2023-01-23T04:21:57;2.55;;;2.28;;
47431;SDS011;33183;52.290;6.144;2023-01-23T04:24:22;2.90;;;2.42;;
47431;SDS011;33183;52.290;6.144;2023-01-23T04:26:47;3.10;;;2.08;;
47431;SDS011;33183;52.290;6.144;2023-01-23T04:29:13;3.63;;;2.15;;
47431;SDS011;33183;52.290;6.144;2023-01-23T04:31:38;2.65;;;2.15;;
47431;SDS011;33183;52.290;6.144;2023-01-23T04:34:04;3.78;;;2.70;;
47431;SDS011;33183;52.290;6.144;2023-01-23T04:36:29;2.65;;;1.90;;
47431;SDS011;33183;52.290;6.144;2023-01-23T04:38:54;2.70;;;2.25;;
47431;SDS011;33183;52.290;6.144;2023-01-23T04:41:21;3.80;;;2.63;;
47431;SDS011;33183;52.290;6.144;2023-01-23T04:43:47;2.60;;;2.13;;
47431;SDS011;33183;52.290;6.144;2023-01-23T04:46:13;2.65;;;2.10;;
47431;SDS011;33183;52.290;6.144;2023-01-23T04:48:38;3.60;;;2.15;;
47431;SDS011;33183;52.290;6.144;2023-01-23T04:51:03;2.45;;;2.25;;
47431;SDS011;33183;52.290;6.144;2023-01-23T04:53:29;2.90;;;2.38;;
47431;SDS011;33183;52.290;6.144;2023-01-23T04:55:54;3.03;;;2.63;;
47431;SDS011;33183;52.290;6.144;2023-01-23T04:58:20;3.05;;;2.17;;
47431;SDS011;33183;52.290;6.144;2023-01-23T05:00:45;3.45;;;2.42;;
47431;SDS011;33183;52.290;6.144;2023-01-23T05:03:10;2.40;;;2.10;;
47431;SDS011;33183;52.290;6.144;2023-01-23T05:05:36;2.38;;;2.03;;
47431;SDS011;33183;52.290;6.144;2023-01-23T05:08:01;4.05;;;2.33;;
47431;SDS011;33183;52.290;6.144;2023-01-23T05:10:26;2.42;;;2.10;;
47431;SDS011;33183;52.290;6.144;2023-01-23T05:12:52;2.47;;;2.22;;
47431;SDS011;33183;52.290;6.144;2023-01-23T05:15:17;3.10;;;2.30;;
47431;SDS011;33183;52.290;6.144;2023-01-23T05:17:42;2.30;;;2.10;;
47431;SDS011;33183;52.290;6.144;2023-01-23T05:20:08;3.22;;;1.98;;
47431;SDS011;33183;52.290;6.144;2023-01-23T05:22:34;2.75;;;2.25;;
47431;SDS011;33183;52.290;6.144;2023-01-23T05:24:59;2.60;;;2.13;;
47431;SDS011;33183;52.290;6.144;2023-01-23T05:27:24;6.68;;;2.53;;
47431;SDS011;33183;52.290;6.144;2023-01-23T05:29:50;2.83;;;2.00;;
47431;SDS011;33183;52.290;6.144;2023-01-23T05:32:15;2.70;;;1.83;;
47431;SDS011;33183;52.290;6.144;2023-01-23T05:34:40;3.30;;;2.47;;
47431;SDS011;33183;52.290;6.144;2023-01-23T05:37:05;2.83;;;2.28;;
47431;SDS011;33183;52.290;6.144;2023-01-23T05:39:31;2.88;;;1.90;;
47431;SDS011;33183;52.290;6.144;2023-01-23T05:41:57;4.72;;;2.30;;
47431;SDS011;33183;52.290;6.144;2023-01-23T05:44:22;3.90;;;1.95;;
47431;SDS011;33183;52.290;6.144;2023-01-23T05:46:47;2.58;;;2.08;;
47431;SDS011;33183;52.290;6.144;2023-01-23T05:49:12;2.70;;;2.10;;
47431;SDS011;33183;52.290;6.144;2023-01-23T05:51:38;2.72;;;1.90;;
47431;SDS011;33183;52.290;6.144;2023-01-23T05:54:03;3.58;;;1.90;;
47431;SDS011;33183;52.290;6.144;2023-01-23T05:56:29;4.55;;;2.50;;
47431;SDS011;33183;52.290;6.144;2023-01-23T05:58:54;2.65;;;1.98;;
47431;SDS011;33183;52.290;6.144;2023-01-23T06:01:20;2.47;;;2.10;;
47431;SDS011;33183;52.290;6.144;2023-01-23T06:03:46;3.33;;;2.38;;
47431;SDS011;33183;52.290;6.144;2023-01-23T06:06:11;2.78;;;2.15;;
47431;SDS011;33183;52.290;6.144;2023-01-23T06:08:37;3.70;;;2.22;;
47431;SDS011;33183;52.290;6.144;2023-01-23T06:11:02;3.10;;;2.10;;
47431;SDS011;33183;52.290;6.144;2023-01-23T06:13:27;2.80;;;2.38;;
47431;SDS011;33183;52.290;6.144;2023-01-23T06:15:53;2.05;;;1.85;;
47431;SDS011;33183;52.290;6.144;2023-01-23T06:18:19;3.88;;;2.42;;
47431;SDS011;33183;52.290;6.144;2023-01-23T06:20:45;5.43;;;2.50;;
47431;SDS011;33183;52.290;6.144;2023-01-23T06:23:10;3.28;;;2.20;;
47431;SDS011;33183;52.290;6.144;2023-01-23T06:25:36;2.97;;;2.45;;
47431;SDS011;33183;52.290;6.144;2023-01-23T06:28:01;4.45;;;2.50;;
47431;SDS011;33183;52.290;6.144;2023-01-23T06:30:27;3.55;;;2.72;;
47431;SDS011;33183;52.290;6.144;2023-01-23T06:32:52;5.90;;;3.22;;
47431;SDS011;33183;52.290;6.144;2023-01-23T06:35:18;3.30;;;2.72;;
47431;SDS011;33183;52.290;6.144;2023-01-23T06:37:43;4.25;;;3.03;;
47431;SDS011;33183;52.290;6.144;2023-01-23T06:40:09;3.58;;;2.78;;
47431;SDS011;33183;52.290;6.144;2023-01-23T06:42:37;3.13;;;2.70;;
47431;SDS011;33183;52.290;6.144;2023-01-23T06:45:03;3.47;;;2.92;;
47431;SDS011;33183;52.290;6.144;2023-01-23T06:47:29;3.95;;;3.03;;
47431;SDS011;33183;52.290;6.144;2023-01-23T06:49:55;5.10;;;3.72;;
47431;SDS011;33183;52.290;6.144;2023-01-23T06:52:21;4.70;;;2.97;;
47431;SDS011;33183;52.290;6.144;2023-01-23T06:54:46;3.75;;;3.10;;
47431;SDS011;33183;52.290;6.144;2023-01-23T06:57:11;4.00;;;3.10;;
47431;SDS011;33183;52.290;6.144;2023-01-23T06:59:37;4.00;;;3.08;;
47431;SDS011;33183;52.290;6.144;2023-01-23T07:02:02;3.75;;;2.65;;
47431;SDS011;33183;52.290;6.144;2023-01-23T07:04:27;3.80;;;3.45;;
47431;SDS011;33183;52.290;6.144;2023-01-23T07:06:53;3.30;;;3.00;;
47431;SDS011;33183;52.290;6.144;2023-01-23T07:09:18;4.60;;;3.33;;
47431;SDS011;33183;52.290;6.144;2023-01-23T07:11:43;4.60;;;2.95;;
47431;SDS011;33183;52.290;6.144;2023-01-23T07:14:08;5.25;;;3.13;;
47431;SDS011;33183;52.290;6.144;2023-01-23T07:16:34;3.47;;;3.05;;
47431;SDS011;33183;52.290;6.144;2023-01-23T07:19:00;4.00;;;2.90;;
47431;SDS011;33183;52.290;6.144;2023-01-23T07:21:26;4.25;;;3.17;;
47431;SDS011;33183;52.290;6.144;2023-01-23T07:23:51;4.40;;;3.30;;
47431;SDS011;33183;52.290;6.144;2023-01-23T07:26:17;9.90;;;4.22;;
47431;SDS011;33183;52.290;6.144;2023-01-23T07:28:42;5.25;;;3.45;;
47431;SDS011;33183;52.290;6.144;2023-01-23T07:31:07;4.05;;;3.40;;
47431;SDS011;33183;52.290;6.144;2023-01-23T07:33:33;3.55;;;3.20;;
47431;SDS011;33183;52.290;6.144;2023-01-23T07:35:58;3.38;;;3.05;;
47431;SDS011;33183;52.290;6.144;2023-01-23T07:38:23;6.72;;;4.38;;
47431;SDS011;33183;52.290;6.144;2023-01-23T07:40:49;3.83;;;3.05;;
47431;SDS011;33183;52.290;6.144;2023-01-23T07:43:15;4.68;;;3.35;;
47431;SDS011;33183;52.290;6.144;2023-01-23T07:45:40;4.05;;;3.30;;
47431;SDS011;33183;52.290;6.144;2023-01-23T07:48:06;6.35;;;3.80;;
47431;SDS011;33183;52.290;6.144;2023-01-23T07:50:31;3.53;;;3.20;;
47431;SDS011;33183;52.290;6.144;2023-01-23T07:52:57;3.42;;;3.13;;
47431;SDS011;33183;52.290;6.144;2023-01-23T07:55:22;4.38;;;3.38;;
47431;SDS011;33183;52.290;6.144;2023-01-23T07:57:47;5.75;;;3.58;;
47431;SDS011;33183;52.290;6.144;2023-01-23T08:00:13;3.92;;;3.53;;
47431;SDS011;33183;52.290;6.144;2023-01-23T08:02:38;4.60;;;4.10;;
47431;SDS011;33183;52.290;6.144;2023-01-23T08:05:04;4.45;;;3.20;;
47431;SDS011;33183;52.290;6.144;2023-01-23T08:07:30;4.15;;;3.75;;
47431;SDS011;33183;52.290;6.144;2023-01-23T08:09:55;6.57;;;3.92;;
47431;SDS011;33183;52.290;6.144;2023-01-23T08:12:20;7.85;;;4.72;;
47431;SDS011;33183;52.290;6.144;2023-01-23T08:14:46;4.05;;;3.65;;
47431;SDS011;33183;52.290;6.144;2023-01-23T08:17:11;4.25;;;3.83;;
47431;SDS011;33183;52.290;6.144;2023-01-23T08:19:36;4.72;;;4.32;;
47431;SDS011;33183;52.290;6.144;2023-01-23T08:22:02;4.65;;;4.25;;
47431;SDS011;33183;52.290;6.144;2023-01-23T08:24:27;5.20;;;4.18;;
47431;SDS011;33183;52.290;6.144;2023-01-23T08:26:52;4.63;;;4.22;;
47431;SDS011;33183;52.290;6.144;2023-01-23T08:29:17;4.90;;;4.40;;
47431;SDS011;33183;52.290;6.144;2023-01-23T08:31:43;5.70;;;4.50;;
47431;SDS011;33183;52.290;6.144;2023-01-23T08:34:08;5.68;;;5.07;;
47431;SDS011;33183;52.290;6.144;2023-01-23T08:36:33;6.43;;;5.55;;
47431;SDS011;33183;52.290;6.144;2023-01-23T08:38:59;6.28;;;5.70;;
47431;SDS011;33183;52.290;6.144;2023-01-23T08:41:24;5.82;;;5.32;;
47431;SDS011;33183;52.290;6.144;2023-01-23T08:43:49;6.15;;;5.53;;
47431;SDS011;33183;52.290;6.144;2023-01-23T08:46:15;6.35;;;5.75;;
47431;SDS011;33183;52.290;6.144;2023-01-23T08:48:40;8.45;;;6.57;;
47431;SDS011;33183;52.290;6.144;2023-01-23T08:51:07;6.20;;;5.70;;
47431;SDS011;33183;52.290;6.144;2023-01-23T08:53:35;7.43;;;6.22;;
47431;SDS011;33183;52.290;6.144;2023-01-23T08:56:04;7.05;;;6.35;;
47431;SDS011;33183;52.290;6.144;2023-01-23T08:58:30;8.13;;;6.65;;
47431;SDS011;33183;52.290;6.144;2023-01-23T09:00:56;7.00;;;5.93;;
47431;SDS011;33183;52.290;6.144;2023-01-23T09:03:21;6.32;;;5.72;;
47431;SDS011;33183;52.290;6.144;2023-01-23T09:05:47;6.00;;;5.50;;
47431;SDS011;33183;52.290;6.144;2023-01-23T09:08:12;6.28;;;5.68;;
47431;SDS011;33183;52.290;6.144;2023-01-23T09:10:37;6.75;;;6.20;;
47431;SDS011;33183;52.290;6.144;2023-01-23T09:13:03;6.63;;;6.03;;
47431;SDS011;33183;52.290;6.144;2023-01-23T09:15:28;6.43;;;5.82;;
47431;SDS011;33183;52.290;6.144;2023-01-23T09:17:53;6.57;;;6.07;;
47431;SDS011;33183;52.290;6.144;2023-01-23T09:20:18;6.43;;;5.82;;
47431;SDS011;33183;52.290;6.144;2023-01-23T09:22:44;6.40;;;5.80;;
47431;SDS011;33183;52.290;6.144;2023-01-23T09:25:09;6.72;;;6.13;;
47431;SDS011;33183;52.290;6.144;2023-01-23T09:27:35;8.48;;;6.15;;
47431;SDS011;33183;52.290;6.144;2023-01-23T09:30:00;7.07;;;6.38;;
47431;SDS011;33183;52.290;6.144;2023-01-23T09:32:26;6.68;;;6.10;;
47431;SDS011;33183;52.290;6.144;2023-01-23T09:34:51;7.80;;;5.95;;
47431;SDS011;33183;52.290;6.144;2023-01-23T09:37:18;6.82;;;6.22;;
47431;SDS011;33183;52.290;6.144;2023-01-23T09:39:44;6.50;;;5.90;;
47431;SDS011;33183;52.290;6.144;2023-01-23T09:42:28;7.10;;;6.40;;
47431;SDS011;33183;52.290;6.144;2023-01-23T09:44:58;6.57;;;5.15;;
47431;SDS011;33183;52.290;6.144;2023-01-23T09:47:34;5.93;;;5.32;;
47431;SDS011;33183;52.290;6.144;2023-01-23T09:50:05;5.97;;;5.47;;
47431;SDS011;33183;52.290;6.144;2023-01-23T09:52:57;6.00;;;5.35;;
47431;SDS011;33183;52.290;6.144;2023-01-23T09:55:44;5.72;;;5.22;;
47431;SDS011;33183;52.290;6.144;2023-01-23T10:00:50;5.78;;;5.00;;
47431;SDS011;33183;52.290;6.144;2023-01-23T10:03:16;6.22;;;5.63;;
47431;SDS011;33183;52.290;6.144;2023-01-23T10:08:26;5.65;;;5.05;;
47431;SDS011;33183;52.290;6.144;2023-01-23T10:11:20;5.63;;;5.13;;
47431;SDS011;33183;52.290;6.144;2023-01-23T10:16:27;6.47;;;4.70;;
47431;SDS011;33183;52.290;6.144;2023-01-23T10:19:02;4.75;;;4.35;;
47431;SDS011;33183;52.290;6.144;2023-01-23T10:21:54;5.22;;;4.78;;
47431;SDS011;33183;52.290;6.144;2023-01-23T10:27:34;5.60;;;5.13;;
47431;SDS011;33183;52.290;6.144;2023-01-23T10:30:03;5.28;;;4.70;;
47431;SDS011;33183;52.290;6.144;2023-01-23T10:32:51;5.45;;;4.95;;
47431;SDS011;33183;52.290;6.144;2023-01-23T10:35:26;4.80;;;4.30;;
47431;SDS011;33183;52.290;6.144;2023-01-23T10:40:49;4.90;;;4.50;;
47431;SDS011;33183;52.290;6.144;2023-01-23T10:43:33;4.80;;;4.32;;
47431;SDS011;33183;52.290;6.144;2023-01-23T10:45:59;5.40;;;4.50;;
47431;SDS011;33183;52.290;6.144;2023-01-23T10:48:26;5.00;;;4.60;;
47431;SDS011;33183;52.290;6.144;2023-01-23T10:50:54;5.00;;;4.60;;
47431;SDS011;33183;52.290;6.144;2023-01-23T10:53:20;5.18;;;4.70;;
47431;SDS011;33183;52.290;6.144;2023-01-23T10:55:45;4.93;;;4.53;;
47431;SDS011;33183;52.290;6.144;2023-01-23T10:58:30;4.30;;;3.90;;
47431;SDS011;33183;52.290;6.144;2023-01-23T11:00:57;4.65;;;4.25;;
47431;SDS011;33183;52.290;6.144;2023-01-23T11:03:24;5.05;;;4.55;;
47431;SDS011;33183;52.290;6.144;2023-01-23T11:05:53;4.75;;;4.32;;
47431;SDS011;33183;52.290;6.144;2023-01-23T11:08:32;5.00;;;4.50;;
47431;SDS011;33183;52.290;6.144;2023-01-23T11:13:40;4.53;;;4.13;;
47431;SDS011;33183;52.290;6.144;2023-01-23T11:16:16;5.10;;;4.30;;
47431;SDS011;33183;52.290;6.144;2023-01-23T11:18:54;4.65;;;4.20;;
47431;SDS011;33183;52.290;6.144;2023-01-23T11:21:27;4.50;;;4.10;;
47431;SDS011;33183;52.290;6.144;2023-01-23T11:24:06;5.00;;;4.50;;
47431;SDS011;33183;52.290;6.144;2023-01-23T11:29:20;4.47;;;4.05;;
47431;SDS011;33183;52.290;6.144;2023-01-23T11:31:48;5.60;;;4.55;;
47431;SDS011;33183;52.290;6.144;2023-01-23T11:34:16;4.28;;;3.90;;
47431;SDS011;33183;52.290;6.144;2023-01-23T11:36:54;5.10;;;4.22;;
47431;SDS011;33183;52.290;6.144;2023-01-23T11:42:01;5.30;;;4.18;;
47431;SDS011;33183;52.290;6.144;2023-01-23T11:44:26;5.05;;;4.28;;
47431;SDS011;33183;52.290;6.144;2023-01-23T11:47:11;4.63;;;4.22;;
47431;SDS011;33183;52.290;6.144;2023-01-23T11:55:16;4.60;;;4.18;;
47431;SDS011;33183;52.290;6.144;2023-01-23T12:00:55;4.05;;;3.65;;
47431;SDS011;33183;52.290;6.144;2023-01-23T12:06:23;4.68;;;4.28;;
47431;SDS011;33183;52.290;6.144;2023-01-23T12:12:28;4.43;;;3.97;;
47431;SDS011;33183;52.290;6.144;2023-01-23T12:24:52;4.50;;;4.10;;
47431;SDS011;33183;52.290;6.144;2023-01-23T12:27:41;4.60;;;4.13;;
47431;SDS011;33183;52.290;6.144;2023-01-23T12:38:49;4.40;;;3.72;;
47431;SDS011;33183;52.290;6.144;2023-01-23T12:41:32;3.95;;;3.50;;
47431;SDS011;33183;52.290;6.144;2023-01-23T12:44:10;3.88;;;3.58;;
47431;SDS011;33183;52.290;6.144;2023-01-23T12:46:39;5.35;;;3.92;;
47431;SDS011;33183;52.290;6.144;2023-01-23T12:49:13;4.20;;;3.70;;
47431;SDS011;33183;52.290;6.144;2023-01-23T12:51:45;4.25;;;3.83;;
47431;SDS011;33183;52.290;6.144;2023-01-23T12:54:16;4.38;;;3.92;;
47431;SDS011;33183;52.290;6.144;2023-01-23T12:56:45;4.18;;;3.60;;
47431;SDS011;33183;52.290;6.144;2023-01-23T12:59:16;3.90;;;3.50;;
47431;SDS011;33183;52.290;6.144;2023-01-23T13:04:40;4.20;;;3.80;;
47431;SDS011;33183;52.290;6.144;2023-01-23T13:07:21;3.97;;;3.65;;
47431;SDS011;33183;52.290;6.144;2023-01-23T13:12:25;4.47;;;4.07;;
47431;SDS011;33183;52.290;6.144;2023-01-23T13:14:52;4.40;;;4.00;;
47431;SDS011;33183;52.290;6.144;2023-01-23T13:20:19;3.88;;;3.47;;
47431;SDS011;33183;52.290;6.144;2023-01-23T13:25:44;4.28;;;3.53;;
47431;SDS011;33183;52.290;6.144;2023-01-23T13:31:05;5.22;;;3.70;;
47431;SDS011;33183;52.290;6.144;2023-01-23T13:41:27;5.32;;;3.95;;
47431;SDS011;33183;52.290;6.144;2023-01-23T13:52:20;4.45;;;3.70;;
47431;SDS011;33183;52.290;6.144;2023-01-23T13:55:15;4.55;;;4.13;;
47431;SDS011;33183;52.290;6.144;2023-01-23T13:58:02;4.60;;;3.88;;
47431;SDS011;33183;52.290;6.144;2023-01-23T14:00:29;4.35;;;3.92;;
47431;SDS011;33183;52.290;6.144;2023-01-23T14:02:57;5.70;;;4.00;;
47431;SDS011;33183;52.290;6.144;2023-01-23T14:05:42;5.13;;;3.83;;
47431;SDS011;33183;52.290;6.144;2023-01-23T14:08:18;4.30;;;3.90;;
47431;SDS011;33183;52.290;6.144;2023-01-23T14:10:45;4.25;;;3.85;;
47431;SDS011;33183;52.290;6.144;2023-01-23T14:13:15;6.10;;;4.32;;
47431;SDS011;33183;52.290;6.144;2023-01-23T14:15:53;5.72;;;4.60;;
47431;SDS011;33183;52.290;6.144;2023-01-23T14:21:16;4.65;;;4.13;;
47431;SDS011;33183;52.290;6.144;2023-01-23T14:23:44;4.63;;;4.22;;
47431;SDS011;33183;52.290;6.144;2023-01-23T14:26:32;4.53;;;3.90;;
47431;SDS011;33183;52.290;6.144;2023-01-23T14:29:03;5.28;;;4.78;;
47431;SDS011;33183;52.290;6.144;2023-01-23T14:31:32;5.07;;;4.57;;
47431;SDS011;33183;52.290;6.144;2023-01-23T14:34:05;5.25;;;4.60;;
47431;SDS011;33183;52.290;6.144;2023-01-23T14:36:36;4.88;;;4.25;;
47431;SDS011;33183;52.290;6.144;2023-01-23T14:39:02;4.80;;;4.30;;
47431;SDS011;33183;52.290;6.144;2023-01-23T14:41:31;4.75;;;4.35;;
47431;SDS011;33183;52.290;6.144;2023-01-23T14:43:58;6.25;;;4.57;;
47431;SDS011;33183;52.290;6.144;2023-01-23T14:46:31;4.70;;;4.30;;
47431;SDS011;33183;52.290;6.144;2023-01-23T14:49:04;4.63;;;4.15;;
47431;SDS011;33183;52.290;6.144;2023-01-23T14:51:32;5.90;;;4.93;;
47431;SDS011;33183;52.290;6.144;2023-01-23T14:53:58;4.97;;;4.28;;
47431;SDS011;33183;52.290;6.144;2023-01-23T14:56:34;4.72;;;4.32;;
47431;SDS011;33183;52.290;6.144;2023-01-23T14:59:02;5.50;;;4.05;;
47431;SDS011;33183;52.290;6.144;2023-01-23T15:01:29;4.60;;;4.20;;
47431;SDS011;33183;52.290;6.144;2023-01-23T15:04:05;5.03;;;4.30;;
47431;SDS011;33183;52.290;6.144;2023-01-23T15:06:42;4.25;;;3.85;;
47431;SDS011;33183;52.290;6.144;2023-01-23T15:09:15;5.10;;;4.43;;
47431;SDS011;33183;52.290;6.144;2023-01-23T15:11:41;5.22;;;4.50;;
47431;SDS011;33183;52.290;6.144;2023-01-23T15:14:17;5.38;;;4.47;;
47431;SDS011;33183;52.290;6.144;2023-01-23T15:16:46;5.28;;;4.00;;
47431;SDS011;33183;52.290;6.144;2023-01-23T15:19:18;5.18;;;4.63;;
47431;SDS011;33183;52.290;6.144;2023-01-23T15:21:45;5.45;;;4.30;;
47431;SDS011;33183;52.290;6.144;2023-01-23T15:26:35;5.32;;;4.05;;
47431;SDS011;33183;52.290;6.144;2023-01-23T15:37:25;4.60;;;4.15;;
47431;SDS011;33183;52.290;6.144;2023-01-23T15:42:27;5.53;;;4.03;;
47431;SDS011;33183;52.290;6.144;2023-01-23T15:44:56;5.57;;;4.10;;
47431;SDS011;33183;52.290;6.144;2023-01-23T15:47:25;4.55;;;3.85;;
47431;SDS011;33183;52.290;6.144;2023-01-23T15:49:52;6.63;;;4.30;;
47431;SDS011;33183;52.290;6.144;2023-01-23T15:54:45;4.82;;;4.15;;
47431;SDS011;33183;52.290;6.144;2023-01-23T15:57:11;5.45;;;4.50;;
47431;SDS011;33183;52.290;6.144;2023-01-23T15:59:36;6.93;;;4.40;;
47431;SDS011;33183;52.290;6.144;2023-01-23T16:02:02;4.63;;;4.20;;
47431;SDS011;33183;52.290;6.144;2023-01-23T16:04:28;4.15;;;3.70;;
47431;SDS011;33183;52.290;6.144;2023-01-23T16:06:54;4.68;;;4.00;;
47431;SDS011;33183;52.290;6.144;2023-01-23T16:09:25;3.97;;;3.58;;
47431;SDS011;33183;52.290;6.144;2023-01-23T16:11:54;3.85;;;3.38;;
47431;SDS011;33183;52.290;6.144;2023-01-23T16:14:20;4.20;;;3.30;;
47431;SDS011;33183;52.290;6.144;2023-01-23T16:16:45;4.38;;;3.08;;
47431;SDS011;33183;52.290;6.144;2023-01-23T16:19:10;4.97;;;4.07;;
47431;SDS011;33183;52.290;6.144;2023-01-23T16:21:36;4.15;;;3.70;;
47431;SDS011;33183;52.290;6.144;2023-01-23T16:24:01;3.38;;;2.97;;
47431;SDS011;33183;52.290;6.144;2023-01-23T16:26:27;4.40;;;3.40;;
47431;SDS011;33183;52.290;6.144;2023-01-23T16:28:53;4.70;;;3.80;;
47431;SDS011;33183;52.290;6.144;2023-01-23T16:31:19;4.45;;;4.05;;
47431;SDS011;33183;52.290;6.144;2023-01-23T16:33:44;4.32;;;3.92;;
47431;SDS011;33183;52.290;6.144;2023-01-23T16:36:11;5.40;;;4.35;;
47431;SDS011;33183;52.290;6.144;2023-01-23T16:38:38;5.15;;;4.65;;
47431;SDS011;33183;52.290;6.144;2023-01-23T16:41:03;5.60;;;4.88;;
47431;SDS011;33183;52.290;6.144;2023-01-23T16:43:29;6.63;;;4.47;;
47431;SDS011;33183;52.290;6.144;2023-01-23T16:45:54;5.05;;;4.55;;
47431;SDS011;33183;52.290;6.144;2023-01-23T16:48:20;5.30;;;4.80;;
47431;SDS011;33183;52.290;6.144;2023-01-23T16:50:49;5.82;;;4.90;;